Time;durP1;ratioP1;P1;durP2;ratioP2;P2;SDS_P1;SDS_P2;PMS_P1;PMS_P2;Temp;Humidity;BMP_temperature;BMP_pressure;BME280_temperature;BME280_humidity;BME280_pressure;Samples;Min_cycle;Max_cycle;Signal;HPM_P1;HPM_P2
2022/07/24 00:00:09;;;;;;;10.20;9.60;;;25.70;47.00;;;;;;20625;6773;309397;-84
2022/07/24 00:02:44;;;;;;;10.13;9.55;;;25.80;47.40;;;;;;20565;6773;336990;-84
2022/07/24 00:05:20;;;;;;;10.63;10.03;;;26.10;47.00;;;;;;20421;6773;281009;-84
2022/07/24 00:07:56;;;;;;;11.27;10.40;;;26.40;46.20;;;;;;20601;6773;279061;-84
2022/07/24 00:10:32;;;;;;;10.67;9.87;;;26.30;46.10;;;;;;20604;6773;281595;-84
2022/07/24 00:13:08;;;;;;;10.60;9.93;;;26.40;46.10;;;;;;20559;6772;308624;-84
2022/07/24 00:15:43;;;;;;;9.57;8.97;;;26.50;45.80;;;;;;20825;6768;118273;-85
2022/07/24 00:18:19;;;;;;;9.63;9.03;;;26.20;46.20;;;;;;20785;6773;119617;-84
2022/07/24 00:20:54;;;;;;;10.30;9.60;;;25.80;46.80;;;;;;20501;6798;290747;-84
2022/07/24 00:23:30;;;;;;;10.30;9.57;;;25.80;46.80;;;;;;20570;6768;279749;-85
2022/07/24 00:26:07;;;;;;;10.30;9.70;;;26.00;46.40;;;;;;20606;6768;336184;-85
2022/07/24 00:28:42;;;;;;;9.53;8.83;;;26.30;46.00;;;;;;20791;6773;117747;-85
2022/07/24 00:31:18;;;;;;;9.73;9.23;;;26.00;46.20;;;;;;20608;6768;304766;-87
2022/07/24 00:33:54;;;;;;;9.33;8.73;;;26.00;46.60;;;;;;20664;6798;118958;-86
2022/07/24 00:36:29;;;;;;;10.27;9.47;;;25.80;46.80;;;;;;20821;6768;116152;-83
2022/07/24 00:39:05;;;;;;;10.50;9.90;;;25.60;47.30;;;;;;20548;6783;306753;-84
2022/07/24 00:41:41;;;;;;;9.73;9.13;;;25.60;47.40;;;;;;20826;6768;117479;-83
2022/07/24 00:44:17;;;;;;;10.83;9.93;;;25.60;47.40;;;;;;20670;6783;117653;-83
2022/07/24 00:46:52;;;;;;;9.80;9.20;;;25.30;47.70;;;;;;20753;6783;117329;-83
2022/07/24 00:49:28;;;;;;;10.67;9.93;;;25.10;48.20;;;;;;20768;6783;116990;-83
2022/07/24 00:52:05;;;;;;;10.57;9.93;;;24.90;48.60;;;;;;20614;6768;280124;-83
2022/07/24 00:54:40;;;;;;;10.57;9.98;;;25.10;49.00;;;;;;20394;6788;341292;-85
2022/07/24 00:57:17;;;;;;;11.00;10.27;;;25.40;48.50;;;;;;20614;6768;305807;-85
2022/07/24 00:59:53;;;;;;;11.33;10.43;;;25.70;48.30;;;;;;20779;6783;117509;-85
2022/07/24 01:02:28;;;;;;;9.97;9.40;;;25.50;48.20;;;;;;20735;6798;120068;-85
2022/07/24 01:05:04;;;;;;;11.00;10.30;;;25.20;48.60;;;;;;20385;6788;280595;-85
2022/07/24 01:07:39;;;;;;;10.33;9.73;;;25.30;48.80;;;;;;20746;6789;117562;-85
2022/07/24 01:10:15;;;;;;;11.47;10.23;;;25.20;48.70;;;;;;20757;6783;117257;-85
2022/07/24 01:12:51;;;;;;;10.77;9.97;;;25.00;49.00;;;;;;20723;6783;118445;-85
2022/07/24 01:15:27;;;;;;;10.37;9.67;;;24.80;49.30;;;;;;20636;6830;118017;-85
2022/07/24 01:18:03;;;;;;;11.10;10.23;;;24.60;49.50;;;;;;20821;6757;117150;-86
2022/07/24 01:20:39;;;;;;;10.90;10.20;;;24.50;49.90;;;;;;20788;6768;118547;-85
2022/07/24 01:23:16;;;;;;;10.67;9.97;;;24.40;50.20;;;;;;20825;6758;118490;-83
2022/07/24 01:25:51;;;;;;;11.37;10.67;;;24.30;50.50;;;;;;20801;6773;117874;-83
2022/07/24 01:28:27;;;;;;;11.80;11.00;;;24.20;50.70;;;;;;20749;6787;118819;-86
2022/07/24 01:31:02;;;;;;;11.53;10.53;;;24.10;50.80;;;;;;20789;6773;117363;-85
2022/07/24 01:33:38;;;;;;;11.50;10.70;;;24.00;51.00;;;;;;20739;6783;117432;-83
2022/07/24 01:36:13;;;;;;;11.23;10.23;;;24.00;51.20;;;;;;20824;6768;117733;-83
2022/07/24 01:38:49;;;;;;;10.47;9.83;;;23.90;51.30;;;;;;20765;6782;117776;-83
2022/07/24 01:41:25;;;;;;;12.23;11.33;;;23.80;51.50;;;;;;20613;6768;306316;-83
2022/07/24 01:44:00;;;;;;;11.50;10.80;;;24.20;51.90;;;;;;20707;6783;119357;-84
2022/07/24 01:46:36;;;;;;;11.50;10.67;;;24.20;51.60;;;;;;20763;6783;121508;-84
2022/07/24 01:49:11;;;;;;;12.33;11.53;;;24.00;51.70;;;;;;20557;6783;307647;-84
2022/07/24 01:51:48;;;;;;;12.52;11.73;;;24.30;52.30;;;;;;20561;6783;342064;-84
2022/07/24 01:54:24;;;;;;;11.60;10.90;;;24.60;51.70;;;;;;20698;6768;117345;-84
2022/07/24 01:57:00;;;;;;;12.27;11.47;;;24.60;51.60;;;;;;20673;6753;308042;-84
2022/07/24 01:59:36;;;;;;;12.77;11.97;;;24.60;51.50;;;;;;20559;6783;305269;-85
2022/07/24 02:02:11;;;;;;;11.63;10.93;;;24.80;51.00;;;;;;20821;6768;117872;-85
2022/07/24 02:04:47;;;;;;;11.97;11.07;;;24.30;51.50;;;;;;20633;6768;120190;-85
2022/07/24 02:07:23;;;;;;;11.50;10.80;;;24.30;51.30;;;;;;20771;6783;117400;-86
2022/07/24 02:09:59;;;;;;;11.30;10.53;;;24.10;51.80;;;;;;20804;6773;119036;-86
2022/07/24 02:12:35;;;;;;;11.73;10.80;;;23.90;52.00;;;;;;20820;6768;117829;-84
2022/07/24 02:15:11;;;;;;;11.45;10.85;;;23.80;52.10;;;;;;20456;6768;278988;-84
2022/07/24 02:17:51;;;;;;;11.43;10.63;;;24.00;51.90;;;;;;20774;6783;120673;-84
2022/07/24 02:20:27;;;;;;;11.70;10.82;;;24.10;51.60;;;;;;20604;6768;336294;-86
2022/07/24 02:23:02;;;;;;;11.60;10.80;;;24.30;51.10;;;;;;20785;6773;118496;-84
2022/07/24 02:25:38;;;;;;;11.10;10.50;;;24.30;51.00;;;;;;20558;6783;278723;-84
2022/07/24 02:28:13;;;;;;;10.77;10.00;;;24.40;51.00;;;;;;20804;6774;118038;-85
2022/07/24 02:30:50;;;;;;;11.17;10.47;;;24.30;50.90;;;;;;20576;6774;279492;-84
2022/07/24 02:33:25;;;;;;;12.18;11.48;;;24.50;50.70;;;;;;20545;6774;310280;-84
2022/07/24 02:36:00;;;;;;;11.90;11.10;;;24.80;50.10;;;;;;20779;6774;117927;-85
2022/07/24 02:38:36;;;;;;;11.13;10.43;;;24.60;50.10;;;;;;20743;6788;117641;-85
2022/07/24 02:41:11;;;;;;;11.80;10.93;;;24.20;50.60;;;;;;20773;6779;117667;-86
2022/07/24 02:43:47;;;;;;;13.00;12.20;;;24.00;51.20;;;;;;20479;6787;308973;-85
2022/07/24 02:46:22;;;;;;;12.00;11.30;;;24.20;51.60;;;;;;20586;6787;306715;-85
2022/07/24 02:48:58;;;;;;;12.10;11.43;;;24.50;51.20;;;;;;20502;6788;337828;-85
2022/07/24 02:51:33;;;;;;;11.33;10.67;;;24.80;50.40;;;;;;20763;6787;117360;-85
2022/07/24 02:54:09;;;;;;;12.30;11.50;;;24.50;50.50;;;;;;20459;6787;309908;-84
2022/07/24 02:56:46;;;;;;;11.97;10.97;;;24.50;50.60;;;;;;20743;6787;127353;-85
2022/07/24 02:59:21;;;;;;;12.87;12.00;;;24.30;50.80;;;;;;20749;6787;117713;-85
2022/07/24 03:01:57;;;;;;;11.40;10.57;;;24.00;51.20;;;;;;20767;6787;119246;-85
2022/07/24 03:04:32;;;;;;;12.27;11.17;;;23.70;51.70;;;;;;20666;6777;117618;-85
2022/07/24 03:07:08;;;;;;;11.40;10.60;;;23.50;52.20;;;;;;20778;6776;122368;-85
2022/07/24 03:09:44;;;;;;;12.83;12.03;;;23.60;52.90;;;;;;20590;6772;297670;-85
2022/07/24 03:12:20;;;;;;;13.00;12.07;;;23.60;52.90;;;;;;20836;6763;118636;-85
2022/07/24 03:14:55;;;;;;;10.70;10.07;;;23.60;52.50;;;;;;20647;6772;118184;-85
2022/07/24 03:17:31;;;;;;;11.70;10.93;;;23.40;52.70;;;;;;20853;6758;118723;-85
2022/07/24 03:20:07;;;;;;;12.60;11.70;;;23.30;53.20;;;;;;20640;6758;302325;-85
2022/07/24 03:22:42;;;;;;;12.37;11.47;;;23.50;53.30;;;;;;20833;6758;117396;-85
2022/07/24 03:25:19;;;;;;;12.77;11.87;;;23.50;53.00;;;;;;20473;6758;310836;-85
2022/07/24 03:27:55;;;;;;;12.53;11.83;;;23.70;53.50;;;;;;20546;6777;307739;-85
2022/07/24 03:30:31;;;;;;;12.00;11.33;;;24.00;52.50;;;;;;20763;6787;119512;-85
2022/07/24 03:33:06;;;;;;;12.73;11.93;;;23.80;52.40;;;;;;20515;6787;306781;-85
2022/07/24 03:35:42;;;;;;;12.77;11.95;;;23.90;52.60;;;;;;20565;6783;277725;-85
2022/07/24 03:38:18;;;;;;;11.93;11.13;;;23.90;52.30;;;;;;20780;6783;118592;-86
2022/07/24 03:40:54;;;;;;;12.43;11.60;;;23.90;52.30;;;;;;20810;6768;117472;-85
2022/07/24 03:43:29;;;;;;;13.00;12.20;;;23.50;52.60;;;;;;20605;6753;308767;-85
2022/07/24 03:46:05;;;;;;;13.82;12.77;;;23.70;53.10;;;;;;20658;6753;306701;-85
2022/07/24 03:48:41;;;;;;;13.23;12.43;;;24.20;52.20;;;;;;20632;6753;308147;-85
2022/07/24 03:51:17;;;;;;;11.80;11.10;;;24.10;52.00;;;;;;20859;6753;119038;-85
2022/07/24 03:53:52;;;;;;;12.40;11.70;;;23.90;52.10;;;;;;20567;6753;279662;-86
2022/07/24 03:56:28;;;;;;;11.90;11.10;;;24.00;52.30;;;;;;20902;6753;118798;-84
2022/07/24 03:59:03;;;;;;;13.20;12.47;;;23.80;52.20;;;;;;20657;6753;280195;-84
2022/07/24 04:01:39;;;;;;;13.00;12.20;;;23.90;51.90;;;;;;20644;6753;338234;-84
2022/07/24 04:04:14;;;;;;;11.60;10.80;;;24.10;51.50;;;;;;20736;6753;117172;-84
2022/07/24 04:06:50;;;;;;;12.47;11.53;;;23.90;51.70;;;;;;20625;6753;278841;-85
2022/07/24 04:09:26;;;;;;;12.95;12.15;;;24.00;52.00;;;;;;20636;6753;335344;-84
2022/07/24 04:12:02;;;;;;;12.13;11.30;;;24.20;51.70;;;;;;20854;6753;120212;-84
2022/07/24 04:14:41;;;;;;;13.05;12.15;;;24.00;51.80;;;;;;20459;6753;309838;-85
2022/07/24 04:17:14;;;;;;;12.47;11.57;;;24.00;52.30;;;;;;20857;6753;118455;-85
2022/07/24 04:19:49;;;;;;;12.20;11.40;;;23.80;52.40;;;;;;20852;6753;117479;-85
2022/07/24 04:22:25;;;;;;;12.90;12.13;;;23.40;52.90;;;;;;20854;6753;117230;-85
2022/07/24 04:25:00;;;;;;;10.93;10.13;;;23.20;53.30;;;;;;20647;6753;119948;-84
2022/07/24 04:27:36;;;;;;;12.33;11.47;;;23.00;53.70;;;;;;20850;6753;117780;-85
2022/07/24 04:30:12;;;;;;;13.20;12.20;;;23.20;53.90;;;;;;20643;6753;306268;-85
2022/07/24 04:32:48;;;;;;;12.97;12.07;;;23.10;53.80;;;;;;20835;6753;127475;-85
2022/07/24 04:35:23;;;;;;;13.50;12.50;;;23.20;53.60;;;;;;20437;6824;279149;-85
2022/07/24 04:37:59;;;;;;;11.43;10.67;;;23.30;53.80;;;;;;20799;6768;118866;-85
2022/07/24 04:40:34;;;;;;;12.33;11.53;;;23.30;53.70;;;;;;20788;6774;117972;-87
2022/07/24 04:43:10;;;;;;;13.70;12.90;;;23.10;53.90;;;;;;20576;6774;277666;-85
2022/07/24 04:45:46;;;;;;;13.50;12.60;;;23.30;54.00;;;;;;20555;6783;307630;-84
2022/07/24 04:48:21;;;;;;;13.23;12.03;;;23.70;53.30;;;;;;20794;6774;120668;-84
2022/07/24 04:50:57;;;;;;;13.17;12.27;;;23.50;53.10;;;;;;20517;6788;308387;-85
2022/07/24 04:53:32;;;;;;;13.45;12.63;;;23.70;53.30;;;;;;20526;6778;282264;-85
2022/07/24 04:56:10;;;;;;;13.23;12.43;;;23.90;52.80;;;;;;20568;6777;278523;-85
2022/07/24 04:58:45;;;;;;;13.47;12.70;;;24.00;52.30;;;;;;20549;6777;308173;-84
2022/07/24 05:01:21;;;;;;;12.53;11.83;;;24.20;52.10;;;;;;20567;6777;279307;-85
2022/07/24 05:03:58;;;;;;;13.48;12.57;;;24.30;51.80;;;;;;20456;6777;342338;-84
2022/07/24 05:06:33;;;;;;;12.33;11.53;;;24.30;51.70;;;;;;20553;6783;307281;-84
2022/07/24 05:09:09;;;;;;;13.23;12.43;;;24.40;51.60;;;;;;20477;6788;312186;-84
2022/07/24 05:11:44;;;;;;;12.43;11.73;;;24.50;51.50;;;;;;20755;6788;118832;-85
2022/07/24 05:14:20;;;;;;;11.30;10.50;;;24.20;51.70;;;;;;20625;6788;120477;-85
2022/07/24 05:16:55;;;;;;;11.93;11.20;;;23.90;52.40;;;;;;20581;6771;306793;-85
2022/07/24 05:19:31;;;;;;;12.10;11.17;;;24.00;52.30;;;;;;20728;6792;117847;-85
2022/07/24 05:22:07;;;;;;;12.73;11.93;;;24.30;52.20;;;;;;20545;6788;308151;-84
2022/07/24 05:24:43;;;;;;;11.47;10.77;;;24.30;52.20;;;;;;20620;6788;119120;-85
2022/07/24 05:27:18;;;;;;;11.80;11.20;;;24.30;52.10;;;;;;20812;6772;117645;-85
2022/07/24 05:29:55;;;;;;;12.63;11.87;;;24.20;52.40;;;;;;20560;6783;310329;-85
2022/07/24 05:32:31;;;;;;;12.47;11.67;;;24.40;52.20;;;;;;20567;6783;297250;-85
2022/07/24 05:35:07;;;;;;;12.23;11.47;;;24.80;51.30;;;;;;20630;6758;117823;-85
2022/07/24 05:37:42;;;;;;;12.27;11.37;;;24.70;51.20;;;;;;20704;6798;121555;-85
2022/07/24 05:40:18;;;;;;;12.70;11.90;;;24.40;51.60;;;;;;20547;6783;307444;-85
2022/07/24 05:42:53;;;;;;;11.80;11.00;;;24.50;51.70;;;;;;20809;6768;118584;-84
2022/07/24 05:45:29;;;;;;;11.93;11.07;;;24.50;51.80;;;;;;20570;6849;117773;-86
2022/07/24 05:48:05;;;;;;;12.17;11.47;;;24.20;52.20;;;;;;20547;6787;309171;-86
2022/07/24 05:50:40;;;;;;;11.50;10.80;;;24.40;52.30;;;;;;20755;6783;119527;-85
2022/07/24 05:53:16;;;;;;;12.23;11.63;;;24.40;52.20;;;;;;20525;6783;314166;-84
2022/07/24 05:55:51;;;;;;;12.07;11.37;;;24.60;52.10;;;;;;20666;6768;306379;-85
2022/07/24 05:58:28;;;;;;;12.02;11.32;;;24.90;51.20;;;;;;20548;6788;281029;-85
2022/07/24 06:01:04;;;;;;;11.57;10.87;;;25.20;50.90;;;;;;20731;6788;120106;-85
2022/07/24 06:03:45;;;;;;;11.20;10.40;;;25.00;51.00;;;;;;20603;6802;117712;-84
2022/07/24 06:06:15;;;;;;;12.70;11.80;;;24.80;51.40;;;;;;20769;6783;118023;-84
2022/07/24 06:08:51;;;;;;;11.80;11.10;;;24.40;52.20;;;;;;20738;6783;118402;-84
2022/07/24 06:11:27;;;;;;;12.40;11.60;;;24.40;51.70;;;;;;20772;6783;117605;-84
2022/07/24 06:14:03;;;;;;;13.07;12.27;;;24.30;52.70;;;;;;20467;6783;280386;-84
2022/07/24 06:16:38;;;;;;;11.88;11.18;;;24.60;51.90;;;;;;20471;6798;308145;-84
2022/07/24 06:19:14;;;;;;;12.35;11.55;;;25.50;51.20;;;;;;20494;6798;334419;-84
2022/07/24 06:21:50;;;;;;;11.10;10.50;;;25.50;50.50;;;;;;20772;6783;120906;-85
2022/07/24 06:24:25;;;;;;;10.63;10.03;;;25.60;50.50;;;;;;20693;6782;117406;-84
2022/07/24 06:27:04;;;;;;;11.37;10.67;;;25.40;50.70;;;;;;20759;6783;121745;-84
2022/07/24 06:29:37;;;;;;;12.03;11.03;;;25.40;50.80;;;;;;20609;6768;277177;-84
2022/07/24 06:32:13;;;;;;;10.73;10.13;;;25.80;49.70;;;;;;20802;6773;118506;-87
2022/07/24 06:34:49;;;;;;;11.10;10.38;;;26.20;50.00;;;;;;20419;6779;310939;-84
2022/07/24 06:37:25;;;;;;;9.97;9.40;;;27.00;47.50;;;;;;20753;6792;118609;-85
2022/07/24 06:40:03;;;;;;;10.10;9.50;;;27.40;47.50;;;;;;20752;6787;121035;-86
2022/07/24 06:42:39;;;;;;;10.83;10.23;;;27.80;47.60;;;;;;20567;6773;306447;-86
2022/07/24 06:45:11;;;;;;;10.97;10.33;;;28.50;45.20;;;;;;20437;6773;281660;-86
2022/07/24 06:47:47;;;;;;;10.40;9.80;;;29.30;43.60;;;;;;20553;6787;307833;-84
2022/07/24 06:50:22;;;;;;;10.30;9.43;;;29.90;42.20;;;;;;20769;6779;119786;-87
2022/07/24 06:52:58;;;;;;;10.40;9.63;;;30.10;42.90;;;;;;20518;6787;307220;-85
2022/07/24 06:55:34;;;;;;;10.50;9.70;;;30.50;40.40;;;;;;20812;6768;118211;-86
2022/07/24 06:58:11;;;;;;;9.83;9.07;;;30.60;40.90;;;;;;20623;6768;277243;-84
2022/07/24 07:00:46;;;;;;;9.73;9.02;;;30.90;39.60;;;;;;20580;6773;306721;-84
2022/07/24 07:03:22;;;;;;;9.13;8.60;;;31.10;39.10;;;;;;20698;6793;118320;-85
2022/07/24 07:05:58;;;;;;;10.13;9.43;;;30.90;40.10;;;;;;20811;6772;118101;-85
2022/07/24 07:08:34;;;;;;;8.53;8.13;;;30.50;40.40;;;;;;20770;6783;119510;-86
2022/07/24 07:11:10;;;;;;;9.53;8.93;;;30.10;41.00;;;;;;20789;6783;116903;-84
2022/07/24 07:13:45;;;;;;;8.93;8.43;;;29.80;41.50;;;;;;20773;6768;119586;-85
2022/07/24 07:16:22;;;;;;;9.10;8.60;;;29.70;41.60;;;;;;20814;6768;119335;-86
2022/07/24 07:18:57;;;;;;;9.00;8.30;;;29.80;41.90;;;;;;20802;6768;121134;-85
2022/07/24 07:21:37;;;;;;;9.70;9.10;;;30.20;40.60;;;;;;20593;6773;280027;-85
2022/07/24 07:24:09;;;;;;;8.97;8.47;;;30.20;40.60;;;;;;20697;6783;119004;-88
2022/07/24 07:26:45;;;;;;;8.87;8.37;;;30.40;40.40;;;;;;20777;6768;121317;-86
2022/07/24 07:29:20;;;;;;;8.70;8.20;;;30.30;40.10;;;;;;20812;6768;117415;-85
2022/07/24 07:31:56;;;;;;;9.27;8.67;;;30.30;40.40;;;;;;20810;6768;118055;-86
2022/07/24 07:34:32;;;;;;;9.33;8.77;;;30.30;40.00;;;;;;20481;6768;279974;-87
2022/07/24 07:37:07;;;;;;;8.33;7.93;;;30.50;39.20;;;;;;20581;6767;277631;-86
2022/07/24 07:39:43;;;;;;;7.83;7.43;;;30.90;39.40;;;;;;20798;6768;119152;-85
2022/07/24 07:42:18;;;;;;;8.20;7.60;;;30.90;39.00;;;;;;20826;6768;117934;-85
2022/07/24 07:44:55;;;;;;;8.63;8.03;;;30.90;38.10;;;;;;20389;6783;310515;-82
2022/07/24 07:47:30;;;;;;;8.83;8.23;;;30.90;38.10;;;;;;20774;6783;117595;-84
2022/07/24 07:50:06;;;;;;;9.33;8.80;;;30.90;38.40;;;;;;20765;6787;117197;-84
2022/07/24 07:52:42;;;;;;;8.67;8.23;;;30.80;38.60;;;;;;20817;6768;120405;-87
2022/07/24 07:55:17;;;;;;;8.53;7.90;;;30.80;39.30;;;;;;20654;6783;118893;-85
2022/07/24 07:57:53;;;;;;;9.00;8.33;;;30.80;39.70;;;;;;20518;6798;308157;-84
2022/07/24 08:00:29;;;;;;;8.17;7.67;;;31.10;37.70;;;;;;20778;6783;117050;-84
2022/07/24 08:03:04;;;;;;;8.57;8.07;;;31.20;38.00;;;;;;20581;6773;305568;-85
2022/07/24 08:05:40;;;;;;;7.73;7.23;;;31.50;37.80;;;;;;20752;6787;117539;-85
2022/07/24 08:08:15;;;;;;;8.53;7.93;;;31.70;37.30;;;;;;20547;6787;307553;-84
2022/07/24 08:10:51;;;;;;;8.30;7.60;;;31.80;36.10;;;;;;20725;6787;119224;-85
2022/07/24 08:13:27;;;;;;;8.27;7.77;;;31.80;36.70;;;;;;20563;6773;307220;-84
2022/07/24 08:16:03;;;;;;;8.30;7.70;;;32.10;36.10;;;;;;20589;6774;307823;-85
2022/07/24 08:18:39;;;;;;;7.82;7.32;;;32.50;35.30;;;;;;20585;6768;277226;-86
2022/07/24 08:21:15;;;;;;;7.65;7.15;;;32.80;34.60;;;;;;20549;6787;279175;-87
2022/07/24 08:23:50;;;;;;;7.45;6.93;;;33.20;34.90;;;;;;20477;6788;334496;-85
2022/07/24 08:26:30;;;;;;;7.70;7.10;;;33.40;33.90;;;;;;20785;6779;117525;-87
2022/07/24 08:29:02;;;;;;;7.23;6.80;;;33.40;34.40;;;;;;20800;6768;120430;-86
2022/07/24 08:31:38;;;;;;;7.20;6.70;;;33.30;34.90;;;;;;20822;6768;117046;-86
2022/07/24 08:34:14;;;;;;;7.00;6.60;;;33.20;35.10;;;;;;20466;6783;290565;-86
2022/07/24 08:36:49;;;;;;;7.50;6.80;;;33.40;34.50;;;;;;20526;6783;306842;-84
2022/07/24 08:39:25;;;;;;;7.07;6.57;;;33.80;34.00;;;;;;20609;6768;279914;-84
2022/07/24 08:42:00;;;;;;;6.77;6.37;;;34.00;33.30;;;;;;20774;6783;117093;-87
2022/07/24 08:44:37;;;;;;;6.77;6.37;;;33.90;32.90;;;;;;20631;6783;117847;-85
2022/07/24 08:47:13;;;;;;;6.57;6.07;;;33.70;33.60;;;;;;20540;6783;309301;-86
2022/07/24 08:49:49;;;;;;;6.80;6.40;;;34.10;31.70;;;;;;20547;6783;308005;-86
2022/07/24 08:52:24;;;;;;;6.47;6.17;;;34.10;31.70;;;;;;20617;6768;307062;-85
2022/07/24 08:55:00;;;;;;;6.33;5.83;;;34.40;31.00;;;;;;20428;6773;280391;-86
2022/07/24 08:57:36;;;;;;;6.57;6.17;;;34.60;30.20;;;;;;20569;6783;278173;-84
2022/07/24 09:00:12;;;;;;;6.33;6.03;;;34.80;30.40;;;;;;20573;6783;277338;-85
2022/07/24 09:02:48;;;;;;;6.80;6.40;;;34.80;30.40;;;;;;20552;6783;308848;-85
2022/07/24 09:05:23;;;;;;;6.90;6.43;;;34.90;30.60;;;;;;20367;6849;279745;-85
2022/07/24 09:08:14;;;;;;;6.77;6.40;;;35.00;31.10;;;;;;20635;6778;278192;-86
2022/07/24 09:10:58;;;;;;;7.00;6.50;;;35.10;30.30;;;;;;20623;6772;305124;-86
2022/07/24 09:14:29;;;;;;;7.13;6.70;;;35.20;31.40;;;;;;20562;6772;301736;-85
2022/07/24 09:16:09;;;;;;;7.00;6.60;;;35.50;29.90;;;;;;20501;6844;301909;-84
2022/07/24 09:18:44;;;;;;;7.47;6.87;;;35.50;29.60;;;;;;20567;6764;307543;-86
2022/07/24 09:21:20;;;;;;;7.17;6.63;;;35.60;29.90;;;;;;20773;6773;119290;-85
2022/07/24 09:24:01;;;;;;;7.40;6.80;;;35.40;29.80;;;;;;20482;6778;339283;-85
2022/07/24 09:26:45;;;;;;;7.30;6.85;;;35.40;29.90;;;;;;20573;6783;309645;-86
2022/07/24 09:29:20;;;;;;;6.80;6.40;;;35.50;29.70;;;;;;20562;6783;306864;-85
2022/07/24 09:31:58;;;;;;;7.27;6.87;;;35.60;30.00;;;;;;20746;6798;118615;-86
2022/07/24 09:34:37;;;;;;;7.57;7.17;;;35.40;29.40;;;;;;20676;6783;121073;-87
2022/07/24 09:37:13;;;;;;;7.20;6.70;;;35.10;29.70;;;;;;20842;6768;117321;-87
2022/07/24 09:39:48;;;;;;;7.80;7.30;;;34.90;30.10;;;;;;20627;6768;276597;-90
2022/07/24 09:42:38;;;;;;;7.37;6.97;;;35.00;30.20;;;;;;20611;6783;275078;-86
2022/07/24 09:45:08;;;;;;;6.90;6.60;;;35.30;29.70;;;;;;20671;6839;117626;-95
2022/07/24 09:47:43;;;;;;;7.30;6.80;;;35.20;29.80;;;;;;20759;6753;275809;-88
2022/07/24 09:50:29;;;;;;;;;;;;;;;;;;;;;
2022/07/24 10:04:17;;;;;;;8.17;7.57;;;36.10;28.70;;;;;;21025;6545;89525;-88
2022/07/24 10:06:44;;;;;;;8.30;7.50;;;35.90;29.20;;;;;;20446;6880;306315;-88
2022/07/24 10:09:09;;;;;;;7.37;6.83;;;35.80;29.30;;;;;;20661;6880;118806;-88
2022/07/24 10:11:35;;;;;;;7.53;7.13;;;35.70;30.00;;;;;;20669;6869;118504;-89
2022/07/24 10:14:01;;;;;;;8.03;7.50;;;35.50;30.10;;;;;;20428;6869;309926;-86
2022/07/24 10:16:29;;;;;;;7.60;7.13;;;35.70;29.70;;;;;;20587;6904;119000;-88
2022/07/24 10:18:58;;;;;;;7.43;7.03;;;35.90;29.60;;;;;;20526;6915;117898;-89
2022/07/24 10:21:27;;;;;;;7.73;7.33;;;35.80;29.70;;;;;;20632;6887;118663;-87
2022/07/24 10:24:10;;;;;;;8.00;7.40;;;35.60;29.50;;;;;;20383;6888;310931;-85
2022/07/24 10:26:34;;;;;;;7.40;7.00;;;35.70;28.30;;;;;;20621;6888;117681;-88
2022/07/24 10:29:07;;;;;;;7.50;7.10;;;35.70;28.80;;;;;;20358;6887;309547;-87
2022/07/24 10:31:31;;;;;;;7.80;7.40;;;35.70;28.10;;;;;;20628;6887;117539;-86
2022/07/24 10:33:57;;;;;;;8.35;7.70;;;35.70;28.50;;;;;;20364;6887;284524;-86
2022/07/24 10:36:23;;;;;;;8.10;7.30;;;35.70;28.00;;;;;;20356;6887;279684;-86
2022/07/24 10:39:09;;;;;;;7.32;6.82;;;36.00;27.70;;;;;;20346;6887;284268;-86
2022/07/24 10:41:34;;;;;;;7.87;7.27;;;36.00;27.70;;;;;;20537;6887;117536;-86
2022/07/24 10:44:14;;;;;;;7.67;7.17;;;35.90;28.10;;;;;;20599;6883;117578;-88
2022/07/24 10:46:59;;;;;;;7.43;6.90;;;35.70;28.30;;;;;;20376;6883;312327;-88
2022/07/24 10:49:44;;;;;;;7.47;6.87;;;35.90;28.40;;;;;;20639;6883;117530;-88
2022/07/24 10:52:11;;;;;;;7.20;6.80;;;35.90;28.10;;;;;;20424;6883;308932;-86
2022/07/24 10:54:36;;;;;;;7.37;6.97;;;36.10;27.40;;;;;;20433;6883;308955;-85
2022/07/24 10:57:02;;;;;;;7.80;7.30;;;36.40;27.40;;;;;;20448;6883;309806;-86
2022/07/24 10:59:37;;;;;;;7.63;7.17;;;36.60;27.10;;;;;;20444;6883;311526;-87
2022/07/24 11:02:28;;;;;;;7.80;7.30;;;36.70;26.90;;;;;;20641;6883;117510;-87
2022/07/24 11:05:24;;;;;;;7.43;6.83;;;36.60;27.40;;;;;;20625;6883;119904;-85
2022/07/24 11:08:11;;;;;;;6.80;6.40;;;36.30;27.90;;;;;;20634;6881;117733;-84
2022/07/24 11:10:46;;;;;;;7.57;6.97;;;36.00;28.10;;;;;;20636;6881;122014;-85
2022/07/24 11:13:33;;;;;;;7.07;6.67;;;35.70;28.00;;;;;;20621;6884;117694;-86
2022/07/24 11:16:23;;;;;;;7.60;7.20;;;35.70;28.00;;;;;;20642;6883;118809;-84
2022/07/24 11:18:52;;;;;;;7.23;6.77;;;35.40;28.10;;;;;;20686;6861;117509;-86
2022/07/24 11:21:38;;;;;;;7.67;7.17;;;35.10;28.40;;;;;;20722;6862;118752;-84
2022/07/24 11:27:28;;;;;;;7.40;7.00;;;34.90;28.70;;;;;;20414;6862;282091;-88
2022/07/24 11:29:54;;;;;;;7.67;7.27;;;35.30;28.40;;;;;;20560;6893;117425;-85
2022/07/24 11:32:20;;;;;;;7.63;7.23;;;35.30;28.20;;;;;;20400;6893;310076;-85
2022/07/24 11:34:47;;;;;;;7.57;7.07;;;35.40;28.30;;;;;;20354;6889;293319;-85
2022/07/24 11:37:13;;;;;;;7.20;6.80;;;35.70;27.90;;;;;;20377;6891;281155;-86
2022/07/24 11:39:39;;;;;;;7.28;6.87;;;35.90;27.50;;;;;;20529;6917;118885;-87
2022/07/24 11:42:04;;;;;;;7.50;7.00;;;35.90;27.70;;;;;;20352;6904;308962;-85
2022/07/24 11:44:30;;;;;;;7.17;6.80;;;36.00;27.90;;;;;;20566;6902;117678;-88
2022/07/24 11:46:56;;;;;;;7.40;7.00;;;35.90;27.90;;;;;;20344;6902;309555;-86
2022/07/24 11:49:20;;;;;;;6.90;6.60;;;35.90;27.60;;;;;;20630;6902;116723;-86
2022/07/24 11:51:46;;;;;;;9.27;8.37;;;36.00;27.80;;;;;;20586;6901;119692;-85
2022/07/24 11:54:15;;;;;;;7.33;6.87;;;35.90;27.20;;;;;;20361;6902;281194;-84
2022/07/24 11:56:39;;;;;;;11.70;10.90;;;35.90;27.20;;;;;;20524;6902;118801;-84
2022/07/24 11:59:05;;;;;;;7.95;7.40;;;36.00;27.50;;;;;;20320;6914;283646;-89
2022/07/24 12:01:30;;;;;;;6.83;6.47;;;36.10;27.80;;;;;;20631;6885;117955;-86
2022/07/24 12:03:57;;;;;;;7.57;7.10;;;36.10;27.00;;;;;;20418;6882;280993;-87
2022/07/24 12:06:22;;;;;;;7.30;6.90;;;36.10;27.00;;;;;;20428;6875;313811;-85
2022/07/24 12:08:49;;;;;;;7.53;7.03;;;36.20;27.70;;;;;;20429;6875;308813;-85
2022/07/24 12:11:24;;;;;;;7.20;6.70;;;36.40;27.80;;;;;;20663;6875;118108;-85
2022/07/24 12:13:51;;;;;;;7.77;7.17;;;36.40;27.40;;;;;;20664;6875;117398;-85
2022/07/24 12:16:25;;;;;;;7.20;6.80;;;36.10;27.30;;;;;;20440;6875;314640;-84
2022/07/24 12:18:50;;;;;;;7.10;6.80;;;36.20;27.30;;;;;;20428;6875;309654;-85
2022/07/24 12:21:17;;;;;;;7.73;7.13;;;36.30;27.10;;;;;;20448;6875;309646;-86
2022/07/24 12:23:43;;;;;;;7.17;6.77;;;36.40;27.30;;;;;;20640;6875;118081;-87
2022/07/24 12:26:08;;;;;;;7.53;7.03;;;36.20;27.90;;;;;;20433;6873;340325;-86
2022/07/24 12:28:34;;;;;;;8.03;6.87;;;36.20;27.30;;;;;;20664;6875;117810;-86
2022/07/24 12:30:59;;;;;;;7.90;7.30;;;36.00;27.50;;;;;;20633;6875;117679;-87
2022/07/24 12:33:26;;;;;;;7.67;7.27;;;35.80;27.60;;;;;;20425;6875;309838;-86
2022/07/24 12:35:55;;;;;;;7.80;7.20;;;35.90;27.40;;;;;;20428;6875;309232;-86
2022/07/24 12:38:27;;;;;;;7.28;6.78;;;36.00;27.70;;;;;;20427;6875;310155;-85
2022/07/24 12:41:06;;;;;;;7.55;7.15;;;36.00;27.50;;;;;;20404;6875;281948;-85
2022/07/24 12:43:31;;;;;;;7.30;6.90;;;36.00;27.80;;;;;;20416;6875;279206;-85
2022/07/24 12:46:04;;;;;;;6.87;6.47;;;36.20;27.60;;;;;;20647;6875;118415;-85
2022/07/24 12:48:30;;;;;;;6.83;6.50;;;36.00;27.80;;;;;;20630;6875;117108;-85
2022/07/24 12:51:02;;;;;;;7.17;6.77;;;35.70;27.70;;;;;;20607;6890;118907;-86
2022/07/24 12:53:28;;;;;;;7.20;6.80;;;35.40;28.20;;;;;;20437;6875;310944;-86
2022/07/24 12:56:00;;;;;;;7.17;6.77;;;35.40;28.10;;;;;;20647;6875;117430;-86
2022/07/24 12:58:26;;;;;;;7.80;7.30;;;35.10;28.40;;;;;;20595;6890;119850;-88
2022/07/24 13:00:55;;;;;;;8.15;7.45;;;35.10;28.40;;;;;;20417;6875;329672;-85
2022/07/24 13:03:21;;;;;;;7.40;6.97;;;35.10;28.20;;;;;;20449;6875;280828;-86
2022/07/24 13:05:51;;;;;;;7.40;6.93;;;35.00;28.20;;;;;;20647;6875;117447;-86
2022/07/24 13:08:12;;;;;;;7.00;6.60;;;35.00;28.20;;;;;;20621;6875;117506;-86
2022/07/24 13:10:38;;;;;;;7.60;7.10;;;34.80;28.40;;;;;;20645;6875;117693;-85
2022/07/24 13:13:04;;;;;;;7.30;6.80;;;34.60;28.60;;;;;;20406;6890;309740;-85
2022/07/24 13:15:29;;;;;;;8.30;7.60;;;34.70;28.10;;;;;;20441;6875;280195;-85
2022/07/24 13:17:55;;;;;;;7.87;7.37;;;35.10;28.10;;;;;;20442;6875;311762;-85